Flight Track Log - Related Links

Times and Time Zones

All times are in EDT time to prevent confusion due to time zone crossing. See the LXJ437 flight status page for this flight to view local times or setup timezone preferences in your user account.

Time Position Orientation Groundspeed Altitude Reporting Facility
EDT Latitude Longitude Course Direction KTS MPH feet Rate Location/Type
05:13PM 34.4281 -119.8217 137° Southeast 155 178 1,100  Level Los Angeles Center
05:13PM 34.4081 -119.7994 137° Southeast 204 235 2,000 1,239 Climbing Los Angeles Center
05:14PM 34.3578 -119.8261 204° Southwest 203 234 3,000 750 Climbing Los Angeles Center
05:15PM 34.3381 -119.8383 207° Southwest 208 239 3,000 1,164 Level Los Angeles Center
05:15PM 34.2936 -119.8678 209° Southwest 235 270 4,300 2,129 Climbing Los Angeles Center
05:17PM 34.2539 -119.9589 242° Southwest 266 306 7,400 3,065 Climbing Los Angeles Center
05:18PM 34.2872 -120.0319 299° West 271 312 11,400 3,936 Climbing Los Angeles Center
05:19PM 34.3589 -120.0931 325° Northwest 295 339 15,600 3,529 Climbing Los Angeles Center
05:20PM 34.4358 -120.1542 327° Northwest 324 373 19,400 2,868 Climbing Los Angeles Center
05:21PM 34.5378 -120.2392 326° Northwest 371 427 22,100 2,323 Climbing Los Angeles Center
05:22PM 34.6519 -120.3308 327° Northwest 419 482 24,200 1,824 Climbing Los Angeles Center
05:23PM 34.7469 -120.4139 324° Northwest 428 493 25,900 864 Climbing Los Angeles Center
05:24PM 34.8517 -120.5017 325° Northwest 430 495 26,000 48 Climbing Los Angeles Center
05:25PM 34.9419 -120.5778 325° Northwest 434 499 26,000  Level Los Angeles Center
05:26PM 35.0608 -120.6772 326° Northwest 434 499 26,000  Level Los Angeles Center
05:27PM 35.1600 -120.7622 325° Northwest 436 502 26,000  Level Los Angeles Center
05:28PM 35.2606 -120.8467 326° Northwest 440 506 26,000  Level Los Angeles Center
05:29PM 35.3597 -120.9328 325° Northwest 438 504 26,000  Level Los Angeles Center
05:30PM 35.4594 -121.0175 325° Northwest 438 504 26,000  Level Los Angeles Center
05:31PM 35.5797 -121.1189 326° Northwest 438 504 26,000  Level Los Angeles Center
05:32PM 35.6358 -121.1675 325° Northwest 437 503 26,000  Level Oakland Center
05:33PM 35.7361 -121.2531 325° Northwest 437 503 26,000  Level Oakland Center
05:34PM 35.8361 -121.3394 325° Northwest 437 503 26,000  Level Oakland Center
05:35PM 35.9311 -121.4292 323° Northwest 431 496 26,000  Level Oakland Center
05:36PM 36.0325 -121.5147 326° Northwest 436 502 26,000  Level Oakland Center
05:37PM 36.1319 -121.6019 325° Northwest 432 497 26,000  Level Oakland Center
05:38PM 36.2328 -121.6867 326° Northwest 435 501 26,000 -49 Level Oakland Center
05:39PM 36.3333 -121.7758 324° Northwest 442 509 25,900 -1,415 Descending Oakland Center
05:40PM 36.4575 -121.8600 331° Northwest 428 493 23,100 -2,585 Descending Oakland Center
05:41PM 36.5681 -121.8992 344° North 414 476 20,600 -1,536 Descending Oakland Center
05:42PM 36.6833 -121.9333 347° North 423 487 19,900 -1,610 Descending Northern Cal TRACON
05:43PM 36.8000 -121.9833 341° North 390 449 17,300 -2,727 Descending Northern Cal TRACON
05:44PM 36.8861 -122.0028 350° North 368 423 14,400 -2,852 Descending Oakland Center
05:45PM 36.9800 -122.0300 347° North 351 404 11,500 -2,146 Descending Oakland Center
05:46PM 37.0764 -122.0536 349° North 352 405 10,000 -732 Descending Oakland Center
05:47PM 37.1661 -122.0756 349° North 334 384 10,000 -836 Level Oakland Center
05:48PM 37.2458 -122.0958 349° North 294 338 8,300 -1,902 Descending Oakland Center
05:49PM 37.3361 -122.1200 348° North 276 318 6,100 -1,366 Descending Oakland Center
05:50PM 37.4075 -122.1419 346° North 269 310 5,500 -1,062 Descending Oakland Center
05:51PM 37.4667 -122.1667 342° North 261 300 4,100 -1,286 Descending Northern Cal TRACON
05:52PM 37.5333 -122.1833 349° North 233 268 3,100 -1,158 Descending Northern Cal TRACON
05:53PM 37.5667 -122.2500 302° West 223 257 1,900 -950 Descending Northern Cal TRACON
05:54PM 37.5833 -122.3000 293° West 141 162 1,200 -714 Descending Northern Cal TRACON
05:55PM 37.6000 -122.3333 302° West 114 131 400 -485 Descending Northern Cal TRACON
05:56PM 37.6206 -122.3778 300° West 126 145 100 -237 Descending Oakland Center
05:58PM 37.6167 -122.3667 North  Level FlightAware Approximate
06:05PM 37.6191 -122.3752 North  Level Estimated

Login

Don't have an account? Register now (free) for customized features, flight alerts, and more!